createdAt,value
2022-08-17T00:01:20.111Z,19.08
2022-08-17T00:03:58.319Z,19.00
2022-08-17T00:06:33.433Z,19.00
2022-08-17T00:09:10.438Z,19.00
2022-08-17T00:12:40.910Z,19.00
2022-08-17T00:14:49.126Z,19.00
2022-08-17T00:17:22.973Z,19.00
2022-08-17T00:19:56.831Z,19.00
2022-08-17T00:22:35.748Z,19.00
2022-08-17T00:25:19.687Z,19.00
2022-08-17T00:27:53.524Z,19.00
2022-08-17T00:30:28.233Z,19.00
2022-08-17T00:33:15.648Z,19.00
2022-08-17T00:35:52.903Z,19.00
2022-08-17T00:38:27.761Z,19.02
2022-08-17T00:41:05.565Z,19.00
2022-08-17T00:43:46.615Z,19.00
2022-08-17T00:46:24.173Z,19.10
2022-08-17T00:48:58.268Z,19.10
2022-08-17T00:51:39.658Z,19.10
2022-08-17T00:54:20.279Z,19.10
2022-08-17T00:57:01.846Z,19.10
2022-08-17T00:59:43.678Z,19.00
2022-08-17T01:02:20.555Z,18.90
2022-08-17T01:04:56.173Z,18.80
2022-08-17T01:07:30.113Z,18.80
2022-08-17T01:10:07.902Z,18.80
2022-08-17T01:13:03.723Z,18.80
2022-08-17T01:15:46.216Z,18.70
2022-08-17T01:18:21.223Z,18.70
2022-08-17T01:21:00.107Z,18.70
2022-08-17T01:23:34.129Z,18.62
2022-08-17T01:26:08.996Z,18.60
2022-08-17T01:28:54.807Z,18.60
2022-08-17T01:31:37.816Z,18.60
2022-08-17T01:34:15.987Z,18.60
2022-08-17T01:36:52.832Z,18.60
2022-08-17T01:39:32.202Z,18.60
2022-08-17T01:42:14.165Z,18.60
2022-08-17T01:44:48.323Z,18.68
2022-08-17T01:47:22.204Z,18.62
2022-08-17T01:49:56.586Z,18.60
2022-08-17T01:52:30.654Z,18.58
2022-08-17T01:55:05.996Z,18.50
2022-08-17T01:57:40.065Z,18.50
2022-08-17T02:00:15.869Z,18.40
2022-08-17T02:02:49.931Z,18.40
2022-08-17T02:05:24.707Z,18.40
2022-08-17T02:08:00.943Z,18.40
2022-08-17T02:10:35.926Z,18.38
2022-08-17T02:13:21.569Z,18.30
2022-08-17T02:15:55.366Z,18.30
2022-08-17T02:18:30.273Z,18.20
2022-08-17T02:21:04.431Z,18.16
2022-08-17T02:23:44.651Z,18.10
2022-08-17T02:26:25.441Z,18.10
2022-08-17T02:29:00.375Z,18.10
2022-08-17T02:31:35.707Z,18.10
2022-08-17T02:34:09.965Z,18.10
2022-08-17T02:36:44.668Z,18.10
2022-08-17T02:39:18.750Z,18.00
2022-08-17T02:42:00.911Z,18.00
2022-08-17T02:44:38.873Z,18.00
2022-08-17T02:47:14.464Z,18.00
2022-08-17T02:49:55.599Z,18.00
2022-08-17T02:52:42.345Z,18.00
2022-08-17T02:55:22.233Z,17.90
2022-08-17T02:57:57.067Z,17.90
2022-08-17T03:00:36.747Z,17.90
2022-08-17T03:03:13.680Z,17.90
2022-08-17T03:05:49.601Z,17.90
2022-08-17T03:08:25.711Z,17.80
2022-08-17T03:11:00.552Z,17.80
2022-08-17T03:13:34.796Z,17.80
2022-08-17T03:16:10.258Z,17.80
2022-08-17T03:18:44.225Z,17.80
2022-08-17T03:21:18.254Z,17.80
2022-08-17T03:23:54.491Z,17.80
2022-08-17T03:26:29.857Z,17.80
2022-08-17T03:29:03.971Z,17.80
2022-08-17T03:31:38.478Z,17.70
2022-08-17T03:34:12.375Z,17.70
2022-08-17T03:36:46.415Z,17.60
2022-08-17T03:39:20.583Z,17.60
2022-08-17T03:41:54.713Z,17.68
2022-08-17T03:44:28.513Z,17.70
2022-08-17T03:47:20.139Z,17.70
2022-08-17T03:50:11.426Z,17.70
2022-08-17T03:53:06.833Z,17.66
2022-08-17T03:55:58.803Z,17.60
2022-08-17T03:58:32.983Z,17.66
2022-08-17T04:01:08.054Z,17.70
2022-08-17T04:03:42.309Z,17.70
2022-08-17T04:06:16.700Z,17.70
2022-08-17T04:08:50.556Z,17.70
2022-08-17T04:11:24.380Z,17.80
2022-08-17T04:13:58.659Z,17.90
2022-08-17T04:16:33.480Z,17.90
2022-08-17T04:19:09.184Z,17.90
2022-08-17T04:21:43.363Z,18.00
2022-08-17T04:24:17.347Z,18.00
2022-08-17T04:26:54.728Z,18.00
2022-08-17T04:29:48.704Z,18.00
2022-08-17T04:33:03.837Z,18.10
2022-08-17T04:35:23.904Z,18.10
2022-08-17T04:37:58.392Z,18.20
2022-08-17T04:40:50.420Z,18.20
2022-08-17T04:43:28.020Z,18.20
2022-08-17T04:46:05.742Z,18.30
2022-08-17T04:48:42.744Z,18.38
2022-08-17T04:51:20.753Z,18.50
2022-08-17T04:53:59.928Z,18.52
2022-08-17T04:56:34.970Z,18.70
2022-08-17T04:59:12.529Z,18.80
2022-08-17T05:01:49.245Z,18.90
2022-08-17T05:04:35.206Z,19.00
2022-08-17T05:07:09.649Z,19.16
2022-08-17T05:09:43.510Z,19.20
2022-08-17T05:12:18.547Z,19.30
2022-08-17T05:14:54.178Z,19.40
2022-08-17T05:17:28.358Z,19.50
2022-08-17T05:20:02.379Z,19.60
2022-08-17T05:22:37.133Z,19.70
2022-08-17T05:25:13.416Z,19.86
2022-08-17T05:27:49.000Z,19.90
2022-08-17T05:30:24.137Z,19.90
2022-08-17T05:33:01.248Z,20.00
2022-08-17T05:35:39.641Z,20.10
2022-08-17T05:38:14.173Z,20.26
2022-08-17T05:40:49.313Z,20.40
2022-08-17T05:43:30.635Z,20.50
2022-08-17T05:46:14.553Z,20.60
2022-08-17T05:48:52.797Z,20.72
2022-08-17T05:51:46.485Z,20.84
2022-08-17T05:54:40.703Z,20.96
2022-08-17T05:57:53.727Z,21.10
2022-08-17T06:00:38.106Z,21.30
2022-08-17T06:03:39.651Z,21.40
2022-08-17T06:06:32.612Z,21.50
2022-08-17T06:09:30.202Z,21.50
2022-08-17T06:12:38.476Z,21.60
2022-08-17T06:15:46.413Z,21.80
2022-08-17T06:18:23.417Z,21.90
2022-08-17T06:21:03.308Z,22.00
2022-08-17T06:23:45.207Z,22.10
2022-08-17T06:26:30.426Z,22.20
2022-08-17T06:29:40.131Z,22.34
2022-08-17T06:32:17.268Z,22.50
2022-08-17T06:34:53.110Z,22.60
2022-08-17T06:38:00.657Z,22.70
2022-08-17T06:41:01.146Z,22.80
2022-08-17T06:44:04.424Z,22.90
2022-08-17T06:46:48.679Z,23.00
2022-08-17T06:49:32.484Z,23.20
2022-08-17T06:52:37.215Z,23.30
2022-08-17T06:55:18.760Z,23.50
2022-08-17T06:58:05.894Z,23.58
2022-08-17T07:00:58.643Z,23.72
2022-08-17T07:03:49.374Z,23.90
2022-08-17T07:06:34.015Z,24.06
2022-08-17T07:09:19.676Z,24.20
2022-08-17T07:12:00.590Z,24.40
2022-08-17T07:14:46.988Z,24.60
2022-08-17T07:17:46.620Z,24.80
2022-08-17T07:20:22.920Z,24.98
2022-08-17T07:23:07.443Z,25.10
2022-08-17T07:25:43.631Z,25.30
2022-08-17T07:28:26.099Z,25.50
2022-08-17T07:31:02.243Z,25.52
2022-08-17T07:33:39.510Z,25.70
2022-08-17T07:36:33.926Z,25.80
2022-08-17T07:39:12.820Z,26.00
2022-08-17T07:41:58.103Z,26.10
2022-08-17T07:44:35.578Z,26.20
2022-08-17T07:47:38.939Z,26.40
2022-08-17T07:50:31.037Z,26.50
2022-08-17T07:53:23.753Z,26.60
2022-08-17T07:56:00.649Z,26.70
2022-08-17T07:58:37.886Z,26.90
2022-08-17T08:01:19.761Z,27.00
2022-08-17T08:03:54.311Z,27.10
2022-08-17T08:06:29.785Z,27.20
2022-08-17T08:09:04.408Z,27.40
2022-08-17T08:11:44.325Z,27.50
2022-08-17T08:14:33.892Z,27.70
2022-08-17T08:17:12.138Z,28.00
2022-08-17T08:19:46.767Z,28.20
2022-08-17T08:22:35.084Z,28.32
2022-08-17T08:25:28.862Z,28.52
2022-08-17T08:28:23.302Z,28.70
2022-08-17T08:31:24.628Z,28.90
2022-08-17T08:34:49.745Z,29.10
2022-08-17T08:37:34.725Z,29.30
2022-08-17T08:40:35.764Z,29.50
2022-08-17T08:43:28.021Z,29.78
2022-08-17T08:46:13.794Z,30.00
2022-08-17T08:50:03.491Z,30.38
2022-08-17T08:53:01.960Z,30.70
2022-08-17T08:55:54.272Z,30.92
2022-08-17T08:58:48.438Z,31.16
2022-08-17T09:01:36.788Z,31.30
2022-08-17T09:05:12.922Z,31.70
2022-08-17T09:08:00.707Z,32.02
2022-08-17T09:10:56.922Z,32.20
2022-08-17T09:13:45.695Z,32.30
2022-08-17T09:16:36.203Z,32.20
2022-08-17T09:19:20.751Z,32.10
2022-08-17T09:22:12.688Z,32.28
2022-08-17T09:24:58.602Z,32.82
2022-08-17T09:27:50.373Z,33.46
2022-08-17T09:30:26.594Z,33.70
2022-08-17T09:33:05.897Z,34.20
2022-08-17T09:35:47.125Z,34.70
2022-08-17T09:38:32.664Z,35.10
2022-08-17T09:41:21.232Z,35.38
2022-08-17T09:44:09.537Z,35.60
2022-08-17T09:47:07.282Z,35.90
2022-08-17T09:49:49.803Z,36.20
2022-08-17T09:52:28.946Z,36.50
2022-08-17T09:55:07.301Z,36.60
2022-08-17T09:58:05.145Z,36.70
2022-08-17T10:00:47.824Z,37.00
2022-08-17T10:03:41.557Z,37.20
2022-08-17T10:06:27.095Z,36.80
2022-08-17T10:09:09.860Z,37.22
2022-08-17T10:12:11.530Z,37.50
2022-08-17T10:15:09.836Z,37.70
2022-08-17T10:18:14.698Z,37.10
2022-08-17T10:21:24.035Z,37.20
2022-08-17T10:24:29.717Z,37.60
2022-08-17T10:27:10.254Z,37.64
2022-08-17T10:29:51.218Z,38.10
2022-08-17T10:32:36.656Z,38.38
2022-08-17T10:35:34.102Z,38.02
2022-08-17T10:38:38.492Z,38.18
2022-08-17T10:41:28.591Z,38.50
2022-08-17T10:44:38.694Z,38.82
2022-08-17T10:47:16.526Z,38.90
2022-08-17T10:49:56.940Z,39.36
2022-08-17T10:52:52.973Z,39.80
2022-08-17T10:55:28.002Z,39.70
2022-08-17T10:58:24.736Z,39.92
2022-08-17T11:01:04.806Z,40.36
2022-08-17T11:03:48.552Z,40.98
2022-08-17T11:06:42.091Z,41.50
2022-08-17T11:09:39.739Z,41.50
2022-08-17T11:12:30.372Z,40.76
2022-08-17T11:15:36.182Z,39.52
2022-08-17T11:18:40.268Z,38.16
2022-08-17T11:21:52.138Z,37.34
2022-08-17T11:24:38.698Z,36.54
2022-08-17T11:27:31.181Z,36.20
2022-08-17T11:30:12.899Z,36.90
2022-08-17T11:32:54.785Z,38.10
2022-08-17T11:35:52.203Z,39.10
2022-08-17T11:38:42.370Z,39.70
2022-08-17T11:41:30.585Z,40.10
2022-08-17T11:44:37.854Z,40.22
2022-08-17T11:47:52.914Z,40.26
2022-08-17T11:51:09.044Z,40.46
2022-08-17T11:54:42.026Z,40.98
2022-08-17T11:58:05.695Z,41.80
2022-08-17T12:01:03.362Z,42.46
2022-08-17T12:03:58.285Z,43.12
2022-08-17T12:06:46.266Z,43.54
2022-08-17T12:09:30.648Z,44.06
2022-08-17T12:12:18.802Z,44.40
2022-08-17T12:15:09.987Z,44.30
2022-08-17T12:17:56.992Z,44.30
2022-08-17T12:20:40.271Z,44.38
2022-08-17T12:23:27.455Z,44.30
2022-08-17T12:26:12.362Z,44.06
2022-08-17T12:28:56.382Z,43.52
2022-08-17T12:31:48.635Z,43.60
2022-08-17T12:34:27.966Z,43.92
2022-08-17T12:37:07.517Z,43.86
2022-08-17T12:39:52.613Z,44.18
2022-08-17T12:42:37.369Z,44.50
2022-08-17T12:45:30.435Z,44.10
2022-08-17T12:48:13.489Z,43.76
2022-08-17T12:53:27.483Z,44.10
2022-08-17T12:56:08.779Z,44.28
2022-08-17T12:58:54.553Z,44.78
2022-08-17T13:01:42.259Z,44.70
2022-08-17T13:04:26.445Z,44.80
2022-08-17T13:07:05.467Z,45.00
2022-08-17T13:09:40.728Z,45.36
2022-08-17T13:12:15.096Z,45.50
2022-08-17T13:14:51.639Z,45.80
2022-08-17T13:17:35.940Z,46.28
2022-08-17T13:20:18.090Z,46.40
2022-08-17T13:23:01.346Z,46.44
2022-08-17T13:25:36.722Z,46.66
2022-08-17T13:28:35.699Z,46.80
2022-08-17T13:31:48.320Z,46.80
2022-08-17T13:35:07.752Z,47.12
2022-08-17T13:37:41.440Z,47.30
2022-08-17T13:40:42.156Z,47.50
2022-08-17T13:43:45.994Z,47.80
2022-08-17T13:46:28.549Z,47.64
2022-08-17T13:49:07.736Z,47.10
2022-08-17T13:51:49.604Z,47.16
2022-08-17T13:54:32.267Z,47.48
2022-08-17T13:57:18.061Z,47.98
2022-08-17T14:00:07.227Z,47.90
2022-08-17T14:02:42.437Z,47.86
2022-08-17T14:05:16.287Z,47.76
2022-08-17T14:07:55.383Z,47.90
2022-08-17T14:10:30.141Z,47.90
2022-08-17T14:13:05.076Z,47.60
2022-08-17T14:15:53.907Z,47.52
2022-08-17T14:18:50.508Z,47.90
2022-08-17T14:21:24.616Z,48.20
2022-08-17T14:24:01.029Z,48.20
2022-08-17T14:26:35.109Z,48.18
2022-08-17T14:29:14.911Z,48.32
2022-08-17T14:31:54.177Z,48.20
2022-08-17T14:34:29.892Z,47.94
2022-08-17T14:37:04.128Z,48.00
2022-08-17T14:39:38.368Z,48.10
2022-08-17T14:42:12.967Z,48.44
2022-08-17T14:44:47.739Z,48.60
2022-08-17T14:47:22.597Z,48.80
2022-08-17T14:50:04.491Z,49.00
2022-08-17T14:52:44.522Z,48.52
2022-08-17T14:55:20.842Z,48.40
2022-08-17T14:57:55.107Z,48.30
2022-08-17T15:00:29.802Z,48.30
2022-08-17T15:03:05.755Z,48.48
2022-08-17T15:05:44.299Z,48.50
2022-08-17T15:08:19.697Z,48.60
2022-08-17T15:10:54.543Z,48.50
2022-08-17T15:13:31.917Z,48.32
2022-08-17T15:16:08.711Z,48.20
2022-08-17T15:18:46.186Z,47.96
2022-08-17T15:21:24.097Z,47.74
2022-08-17T15:23:58.155Z,47.30
2022-08-17T15:26:33.047Z,47.24
2022-08-17T15:29:07.534Z,47.50
2022-08-17T15:31:41.752Z,47.94
2022-08-17T15:34:17.858Z,48.10
2022-08-17T15:36:53.394Z,47.90
2022-08-17T15:39:27.803Z,47.70
2022-08-17T15:42:07.950Z,47.60
2022-08-17T15:44:45.795Z,47.50
2022-08-17T15:47:20.245Z,47.20
2022-08-17T15:49:59.873Z,46.90
2022-08-17T15:52:40.266Z,46.70
2022-08-17T15:55:22.035Z,46.68
2022-08-17T15:57:58.589Z,46.40
2022-08-17T16:00:49.907Z,46.00
2022-08-17T16:03:58.269Z,46.00
2022-08-17T16:06:23.969Z,45.92
2022-08-17T16:08:59.963Z,45.60
2022-08-17T16:11:33.995Z,45.50
2022-08-17T16:14:08.441Z,45.58
2022-08-17T16:16:47.588Z,45.78
2022-08-17T16:19:21.800Z,46.28
2022-08-17T16:21:55.778Z,46.40
2022-08-17T16:24:31.035Z,46.10
2022-08-17T16:27:11.712Z,44.68
2022-08-17T16:29:46.998Z,43.00
2022-08-17T16:32:31.997Z,41.72
2022-08-17T16:35:12.617Z,41.40
2022-08-17T16:37:46.937Z,41.80
2022-08-17T16:40:22.549Z,42.10
2022-08-17T16:42:58.035Z,41.20
2022-08-17T16:45:40.339Z,39.82
2022-08-17T16:48:15.798Z,38.66
2022-08-17T16:51:03.106Z,37.78
2022-08-17T16:53:38.556Z,36.76
2022-08-17T16:56:12.588Z,35.78
2022-08-17T16:58:46.445Z,35.14
2022-08-17T17:01:25.521Z,34.68
2022-08-17T17:04:04.655Z,34.80
2022-08-17T17:06:48.318Z,34.80
2022-08-17T17:09:30.654Z,35.00
2022-08-17T17:12:09.772Z,34.84
2022-08-17T17:14:48.044Z,34.40
2022-08-17T17:17:31.191Z,33.84
2022-08-17T17:20:13.288Z,33.22
2022-08-17T17:22:55.649Z,32.60
2022-08-17T17:25:37.260Z,32.10
2022-08-17T17:28:25.065Z,31.60
2022-08-17T17:31:11.956Z,31.14
2022-08-17T17:33:51.015Z,30.80
2022-08-17T17:36:38.349Z,30.50
2022-08-17T17:39:21.266Z,30.20
2022-08-17T17:42:00.054Z,29.90
2022-08-17T17:44:39.760Z,29.62
2022-08-17T17:47:16.536Z,29.34
2022-08-17T17:49:51.709Z,29.10
2022-08-17T17:52:39.159Z,28.80
2022-08-17T17:55:30.011Z,28.60
2022-08-17T17:58:23.223Z,28.30
2022-08-17T18:01:19.144Z,28.00
2022-08-17T18:04:14.268Z,27.80
2022-08-17T18:07:24.471Z,27.60
2022-08-17T18:10:29.324Z,27.30
2022-08-17T18:13:18.299Z,27.10
2022-08-17T18:15:54.895Z,26.90
2022-08-17T18:18:50.247Z,26.70
2022-08-17T18:21:30.207Z,26.50
2022-08-17T18:24:08.985Z,26.40
2022-08-17T18:26:58.726Z,26.30
2022-08-17T18:29:51.337Z,26.20
2022-08-17T18:32:38.490Z,26.06
2022-08-17T18:35:36.002Z,26.00
2022-08-17T18:38:33.706Z,25.90
2022-08-17T18:41:23.804Z,25.72
2022-08-17T18:44:17.598Z,25.60
2022-08-17T18:47:13.990Z,25.48
2022-08-17T18:49:57.415Z,25.30
2022-08-17T18:52:35.006Z,25.18
2022-08-17T18:55:21.770Z,25.06
2022-08-17T18:57:59.359Z,25.00
2022-08-17T19:00:42.360Z,24.90
2022-08-17T19:03:27.649Z,24.80
2022-08-17T19:06:27.163Z,24.70
2022-08-17T19:09:02.639Z,24.60
2022-08-17T19:11:40.483Z,24.60
2022-08-17T19:14:18.247Z,24.50
2022-08-17T19:16:59.740Z,24.40
2022-08-17T19:19:43.085Z,24.30
2022-08-17T19:22:29.346Z,24.20
2022-08-17T19:25:18.987Z,24.08
2022-08-17T19:28:21.917Z,24.00
2022-08-17T19:31:05.910Z,23.90
2022-08-17T19:33:40.477Z,23.90
2022-08-17T19:36:34.696Z,23.80
2022-08-17T19:39:26.499Z,23.80
2022-08-17T19:42:15.403Z,23.80
2022-08-17T19:45:04.102Z,23.70
2022-08-17T19:47:55.424Z,23.60
2022-08-17T19:50:41.425Z,23.50
2022-08-17T19:53:47.799Z,23.40
2022-08-17T19:56:39.442Z,23.40
2022-08-17T19:59:24.840Z,23.32
2022-08-17T20:02:05.432Z,23.30
2022-08-17T20:04:48.612Z,23.30
2022-08-17T20:07:28.775Z,23.20
2022-08-17T20:10:11.191Z,23.20
2022-08-17T20:12:51.023Z,23.10
2022-08-17T20:15:35.246Z,23.06
2022-08-17T20:18:21.133Z,23.00
2022-08-17T20:21:02.862Z,23.00
2022-08-17T20:23:52.765Z,23.00
2022-08-17T20:26:34.873Z,23.00
2022-08-17T20:29:40.340Z,22.90
2022-08-17T20:32:30.916Z,22.86
2022-08-17T20:35:28.747Z,22.80
2022-08-17T20:38:12.111Z,22.80
2022-08-17T20:41:17.803Z,22.80
2022-08-17T20:44:08.044Z,22.80
2022-08-17T20:47:04.927Z,22.70
2022-08-17T20:49:57.888Z,22.60
2022-08-17T20:52:55.145Z,22.60
2022-08-17T20:55:58.494Z,22.60
2022-08-17T20:58:48.486Z,22.50
2022-08-17T21:01:41.501Z,22.50
2022-08-17T21:05:00.314Z,22.50
2022-08-17T21:07:54.665Z,22.40
2022-08-17T21:10:47.186Z,22.40
2022-08-17T21:13:48.725Z,22.32
2022-08-17T21:16:48.437Z,22.30
2022-08-17T21:20:07.773Z,22.30
2022-08-17T21:22:53.087Z,22.30
2022-08-17T21:25:54.476Z,22.30
2022-08-17T21:29:00.312Z,22.30
2022-08-17T21:31:41.248Z,22.26
2022-08-17T21:34:39.419Z,22.20
2022-08-17T21:37:41.026Z,22.20
2022-08-17T21:40:31.055Z,22.20
2022-08-17T21:43:24.791Z,22.20
2022-08-17T21:46:05.907Z,22.20
2022-08-17T21:48:49.427Z,22.20
2022-08-17T21:51:32.605Z,22.26
2022-08-17T21:54:24.618Z,22.20
2022-08-17T21:57:00.508Z,22.10
2022-08-17T21:59:40.133Z,22.00
2022-08-17T22:02:25.278Z,21.90
2022-08-17T22:05:06.784Z,21.90
2022-08-17T22:07:46.629Z,21.80
2022-08-17T22:10:37.105Z,21.80
2022-08-17T22:13:22.226Z,21.70
2022-08-17T22:16:28.780Z,21.70
2022-08-17T22:19:05.455Z,21.70
2022-08-17T22:21:39.828Z,21.70
2022-08-17T22:24:25.003Z,21.70
2022-08-17T22:27:13.901Z,21.60
2022-08-17T22:29:59.316Z,21.60
2022-08-17T22:32:45.551Z,21.60
2022-08-17T22:35:40.792Z,21.60
2022-08-17T22:38:33.845Z,21.50
2022-08-17T22:41:44.514Z,21.50
2022-08-17T22:44:32.474Z,21.50
2022-08-17T22:47:25.404Z,21.40
2022-08-17T22:50:03.472Z,21.30
2022-08-17T22:52:59.448Z,21.20
2022-08-17T22:55:52.841Z,21.20
2022-08-17T22:58:59.303Z,21.20
2022-08-17T23:01:36.165Z,21.20
2022-08-17T23:04:25.761Z,21.20
2022-08-17T23:06:59.654Z,21.20
2022-08-17T23:09:34.188Z,21.22
2022-08-17T23:12:15.878Z,21.20
2022-08-17T23:14:51.496Z,21.20
2022-08-17T23:17:25.581Z,21.10
2022-08-17T23:19:59.509Z,21.00
2022-08-17T23:22:37.445Z,20.94
2022-08-17T23:25:32.005Z,20.90
2022-08-17T23:28:09.288Z,20.84
2022-08-17T23:30:48.080Z,20.80
2022-08-17T23:33:29.930Z,20.70
2022-08-17T23:36:04.524Z,20.66
2022-08-17T23:38:40.296Z,20.68
2022-08-17T23:41:19.654Z,20.66
2022-08-17T23:43:55.571Z,20.60
2022-08-17T23:46:29.544Z,20.60
2022-08-17T23:49:03.649Z,20.52
2022-08-17T23:51:42.644Z,20.50
2022-08-17T23:54:22.426Z,20.50
2022-08-17T23:56:56.753Z,20.50
2022-08-17T23:59:30.958Z,20.48
